createdAt,value
2023-01-09T00:00:54.017Z,73.30
2023-01-09T00:03:20.750Z,73.36
2023-01-09T00:05:47.416Z,73.50
2023-01-09T00:08:13.931Z,73.19
2023-01-09T00:10:40.458Z,73.26
2023-01-09T00:13:06.942Z,73.18
2023-01-09T00:15:33.547Z,73.13
2023-01-09T00:18:00.092Z,73.32
2023-01-09T00:20:26.675Z,73.46
2023-01-09T00:22:53.283Z,73.37
2023-01-09T00:25:19.653Z,73.72
2023-01-09T00:27:46.091Z,73.97
2023-01-09T00:30:12.759Z,74.03
2023-01-09T00:32:40.241Z,74.23
2023-01-09T00:35:09.879Z,74.20
2023-01-09T00:37:36.296Z,74.30
2023-01-09T00:40:02.710Z,74.70
2023-01-09T00:42:31.871Z,74.41
2023-01-09T00:45:04.628Z,74.59
2023-01-09T00:47:43.022Z,74.49
2023-01-09T00:50:18.504Z,74.67
2023-01-09T00:52:46.820Z,74.71
2023-01-09T00:55:14.252Z,74.75
2023-01-09T00:57:40.842Z,74.99
2023-01-09T01:00:08.918Z,75.18
2023-01-09T01:02:35.393Z,75.18
2023-01-09T01:05:20.583Z,75.28
2023-01-09T01:07:47.102Z,75.06
2023-01-09T01:10:20.868Z,75.31
2023-01-09T01:12:48.746Z,75.37
2023-01-09T01:15:16.445Z,75.42
2023-01-09T01:17:43.159Z,75.52
2023-01-09T01:20:14.045Z,75.25
2023-01-09T01:22:42.403Z,75.44
2023-01-09T01:25:10.088Z,75.54
2023-01-09T01:27:36.580Z,75.58
2023-01-09T01:30:03.390Z,75.53
2023-01-09T01:32:29.832Z,75.68
2023-01-09T01:34:56.254Z,75.99
2023-01-09T01:37:23.506Z,76.04
2023-01-09T01:39:51.243Z,75.90
2023-01-09T01:42:17.707Z,76.39
2023-01-09T01:44:56.255Z,76.12
2023-01-09T01:47:28.268Z,76.40
2023-01-09T01:49:55.895Z,76.64
2023-01-09T01:52:23.865Z,76.26
2023-01-09T01:54:50.386Z,76.22
2023-01-09T01:57:16.925Z,75.85
2023-01-09T01:59:52.176Z,75.75
2023-01-09T02:02:22.462Z,75.72
2023-01-09T02:04:52.084Z,76.28
2023-01-09T02:07:18.713Z,76.09
2023-01-09T02:09:46.187Z,76.59
2023-01-09T02:12:38.854Z,76.50
2023-01-09T02:15:12.100Z,76.51
2023-01-09T02:17:56.746Z,76.56
2023-01-09T02:20:35.538Z,76.52
2023-01-09T02:23:20.350Z,76.47
2023-01-09T02:26:34.900Z,76.62
2023-01-09T02:29:16.625Z,76.56
2023-01-09T02:31:56.594Z,76.38
2023-01-09T02:34:32.009Z,76.58
2023-01-09T02:37:28.236Z,76.42
2023-01-09T02:40:14.895Z,76.47
2023-01-09T02:42:44.064Z,76.38
2023-01-09T02:45:10.545Z,76.43
2023-01-09T02:47:43.258Z,76.31
2023-01-09T02:50:14.815Z,76.64
2023-01-09T02:53:03.092Z,76.05
2023-01-09T02:56:06.077Z,76.46
2023-01-09T02:58:57.916Z,76.61
2023-01-09T03:01:52.229Z,76.16
2023-01-09T03:04:30.430Z,76.16
2023-01-09T03:07:12.819Z,76.10
2023-01-09T03:09:41.228Z,76.62
2023-01-09T03:12:21.970Z,76.12
2023-01-09T03:14:53.623Z,76.24
2023-01-09T03:17:29.154Z,76.18
2023-01-09T03:19:57.681Z,76.34
2023-01-09T03:22:24.867Z,76.34
2023-01-09T03:24:51.442Z,76.07
2023-01-09T03:27:18.385Z,76.17
2023-01-09T03:29:44.907Z,75.71
2023-01-09T03:32:11.448Z,75.65
2023-01-09T03:34:38.081Z,75.54
2023-01-09T03:37:04.880Z,75.74
2023-01-09T03:39:32.631Z,75.82
2023-01-09T03:41:59.111Z,75.59
2023-01-09T03:44:25.656Z,75.65
2023-01-09T03:46:52.037Z,75.93
2023-01-09T03:49:19.052Z,76.06
2023-01-09T03:51:45.462Z,76.29
2023-01-09T03:54:11.928Z,76.17
2023-01-09T03:56:38.403Z,76.06
2023-01-09T03:59:04.819Z,76.22
2023-01-09T04:01:31.417Z,76.62
2023-01-09T04:03:57.844Z,76.43
2023-01-09T04:06:24.397Z,76.50
2023-01-09T04:08:50.805Z,76.32
2023-01-09T04:11:18.130Z,76.14
2023-01-09T04:13:45.123Z,76.05
2023-01-09T04:16:11.730Z,75.98
2023-01-09T04:18:38.255Z,75.81
2023-01-09T04:21:04.810Z,75.61
2023-01-09T04:23:31.322Z,75.91
2023-01-09T04:25:57.767Z,75.75
2023-01-09T04:28:24.273Z,75.91
2023-01-09T04:30:50.725Z,76.11
2023-01-09T04:33:17.267Z,75.85
2023-01-09T04:35:43.828Z,75.95
2023-01-09T04:38:10.308Z,75.83
2023-01-09T04:40:36.886Z,76.14
2023-01-09T04:43:03.408Z,76.25
2023-01-09T04:45:29.843Z,76.13
2023-01-09T04:47:56.494Z,76.00
2023-01-09T04:50:23.049Z,76.06
2023-01-09T04:52:49.642Z,76.13
2023-01-09T04:55:16.229Z,75.95
2023-01-09T04:57:42.701Z,76.21
2023-01-09T05:00:12.035Z,76.09
2023-01-09T05:02:38.963Z,76.21
2023-01-09T05:05:08.494Z,76.13
2023-01-09T05:07:36.308Z,76.30
2023-01-09T05:10:05.365Z,75.61
2023-01-09T05:12:34.495Z,76.13
2023-01-09T05:15:00.987Z,76.11
2023-01-09T05:17:27.586Z,76.51
2023-01-09T05:19:54.197Z,76.43
2023-01-09T05:22:20.687Z,76.22
2023-01-09T05:24:47.239Z,76.42
2023-01-09T05:27:13.875Z,76.45
2023-01-09T05:29:40.404Z,76.19
2023-01-09T05:32:06.939Z,76.25
2023-01-09T05:34:33.685Z,76.19
2023-01-09T05:37:00.307Z,76.59
2023-01-09T05:39:26.844Z,76.50
2023-01-09T05:41:53.435Z,76.35
2023-01-09T05:44:19.914Z,76.11
2023-01-09T05:46:46.411Z,76.26
2023-01-09T05:49:12.930Z,75.91
2023-01-09T05:51:39.513Z,76.00
2023-01-09T05:54:07.447Z,76.39
2023-01-09T05:56:34.017Z,76.52
2023-01-09T05:59:00.555Z,76.41
2023-01-09T06:01:27.233Z,76.70
2023-01-09T06:03:53.798Z,76.30
2023-01-09T06:06:20.389Z,76.35
2023-01-09T06:08:46.792Z,76.75
2023-01-09T06:11:13.406Z,76.92
2023-01-09T06:13:39.992Z,76.82
2023-01-09T06:16:07.329Z,76.75
2023-01-09T06:18:33.904Z,76.94
2023-01-09T06:21:00.395Z,76.82
2023-01-09T06:23:26.898Z,76.56
2023-01-09T06:25:53.455Z,76.72
2023-01-09T06:28:19.833Z,76.80
2023-01-09T06:30:50.829Z,76.15
2023-01-09T06:33:17.302Z,76.91
2023-01-09T06:35:43.950Z,76.76
2023-01-09T06:38:10.410Z,76.41
2023-01-09T06:40:36.982Z,76.66
2023-01-09T06:43:03.854Z,76.35
2023-01-09T06:45:30.705Z,76.46
2023-01-09T06:47:57.090Z,76.14
2023-01-09T06:50:23.670Z,76.46
2023-01-09T06:52:50.041Z,76.50
2023-01-09T06:55:17.676Z,76.49
2023-01-09T06:57:44.212Z,76.48
2023-01-09T07:00:12.219Z,75.93
2023-01-09T07:02:38.651Z,76.26
2023-01-09T07:05:07.911Z,76.47
2023-01-09T07:07:34.610Z,76.47
2023-01-09T07:10:01.065Z,76.08
2023-01-09T07:12:27.643Z,76.17
2023-01-09T07:14:56.177Z,76.18
2023-01-09T07:17:23.906Z,76.15
2023-01-09T07:19:50.307Z,75.95
2023-01-09T07:22:17.846Z,75.96
2023-01-09T07:24:44.620Z,75.72
2023-01-09T07:27:13.351Z,75.64
2023-01-09T07:29:39.797Z,75.60
2023-01-09T07:32:06.724Z,75.97
2023-01-09T07:34:33.136Z,75.89
2023-01-09T07:36:59.770Z,76.04
2023-01-09T07:39:27.153Z,76.24
2023-01-09T07:41:53.750Z,75.98
2023-01-09T07:44:20.183Z,76.24
2023-01-09T07:46:46.893Z,76.32
2023-01-09T07:49:13.263Z,75.47
2023-01-09T07:51:43.102Z,75.71
2023-01-09T07:54:11.342Z,75.79
2023-01-09T07:56:38.263Z,75.83
2023-01-09T07:59:04.706Z,75.85
2023-01-09T08:01:31.717Z,75.66
2023-01-09T08:03:58.163Z,75.52
2023-01-09T08:06:24.654Z,75.80
2023-01-09T08:08:51.084Z,75.82
2023-01-09T08:11:17.683Z,75.83
2023-01-09T08:13:44.098Z,75.97
2023-01-09T08:16:10.674Z,75.91
2023-01-09T08:18:37.083Z,75.74
2023-01-09T08:21:03.624Z,76.11
2023-01-09T08:23:30.046Z,76.10
2023-01-09T08:25:56.433Z,76.08
2023-01-09T08:28:22.846Z,75.98
2023-01-09T08:30:49.666Z,75.94
2023-01-09T08:33:16.205Z,76.57
2023-01-09T08:35:44.499Z,76.09
2023-01-09T08:38:11.265Z,76.13
2023-01-09T08:40:38.180Z,76.08
2023-01-09T08:43:23.466Z,76.10
2023-01-09T08:46:09.032Z,75.82
2023-01-09T08:48:35.542Z,75.95
2023-01-09T08:51:02.373Z,76.08
2023-01-09T08:53:29.557Z,76.15
2023-01-09T08:55:56.181Z,76.00
2023-01-09T08:58:22.716Z,76.12
2023-01-09T09:00:49.214Z,75.79
2023-01-09T09:03:15.581Z,76.00
2023-01-09T09:05:42.099Z,75.84
2023-01-09T09:08:08.637Z,76.44
2023-01-09T09:10:35.239Z,75.92
2023-01-09T09:13:01.651Z,76.16
2023-01-09T09:15:28.502Z,75.70
2023-01-09T09:18:03.112Z,75.46
2023-01-09T09:20:32.331Z,75.50
2023-01-09T09:22:59.110Z,75.70
2023-01-09T09:25:26.109Z,76.00
2023-01-09T09:27:53.005Z,75.98
2023-01-09T09:30:20.215Z,75.99
2023-01-09T09:32:46.890Z,75.86
2023-01-09T09:35:13.903Z,75.99
2023-01-09T09:37:40.728Z,75.78
2023-01-09T09:40:18.824Z,75.62
2023-01-09T09:43:28.786Z,75.05
2023-01-09T09:46:18.168Z,74.66
2023-01-09T09:48:56.765Z,74.82
2023-01-09T09:51:23.285Z,75.36
2023-01-09T09:54:14.019Z,74.98
2023-01-09T09:56:59.389Z,74.51
2023-01-09T09:59:34.336Z,75.28
2023-01-09T10:02:14.763Z,75.31
2023-01-09T10:04:48.856Z,75.48
2023-01-09T10:10:24.935Z,75.77
2023-01-09T10:12:58.420Z,75.91
2023-01-09T10:15:31.117Z,76.05
2023-01-09T10:18:12.468Z,75.97
2023-01-09T10:20:38.939Z,76.64
2023-01-09T10:23:26.523Z,76.26
2023-01-09T10:26:32.503Z,76.31
2023-01-09T10:29:47.349Z,76.69
2023-01-09T10:32:28.820Z,76.86
2023-01-09T10:35:04.392Z,76.87
2023-01-09T10:37:40.226Z,76.95
2023-01-09T10:40:18.860Z,77.11
2023-01-09T10:42:50.077Z,77.40
2023-01-09T10:45:31.399Z,77.04
2023-01-09T10:48:05.030Z,77.26
2023-01-09T10:50:35.797Z,77.21
2023-01-09T10:53:15.541Z,77.26
2023-01-09T10:55:49.353Z,77.70
2023-01-09T10:58:22.557Z,77.57
2023-01-09T11:00:50.620Z,77.86
2023-01-09T11:03:22.517Z,77.59
2023-01-09T11:05:54.493Z,78.08
2023-01-09T11:08:31.513Z,78.13
2023-01-09T11:11:00.252Z,78.23
2023-01-09T11:13:35.075Z,78.27
2023-01-09T11:16:09.285Z,78.33
2023-01-09T11:18:47.852Z,78.04
2023-01-09T11:21:29.636Z,78.05
2023-01-09T11:23:56.940Z,78.48
2023-01-09T11:26:28.260Z,78.13
2023-01-09T11:29:11.767Z,78.10
2023-01-09T11:31:39.886Z,78.56
2023-01-09T11:34:15.632Z,78.43
2023-01-09T11:36:42.172Z,78.46
2023-01-09T11:39:22.721Z,78.06
2023-01-09T11:41:53.964Z,77.91
2023-01-09T11:44:32.761Z,78.29
2023-01-09T11:46:59.782Z,78.42
2023-01-09T11:49:31.082Z,78.08
2023-01-09T11:52:19.535Z,78.07
2023-01-09T11:54:55.279Z,77.74
2023-01-09T11:57:24.071Z,77.95
2023-01-09T11:59:50.666Z,78.06
2023-01-09T12:02:33.958Z,77.55
2023-01-09T12:05:00.289Z,76.83
2023-01-09T12:08:00.096Z,77.17
2023-01-09T12:10:41.647Z,77.62
2023-01-09T12:13:35.920Z,78.07
2023-01-09T12:16:36.762Z,77.81
2023-01-09T12:19:05.893Z,78.16
2023-01-09T12:21:36.465Z,78.30
2023-01-09T12:24:09.748Z,77.61
2023-01-09T12:26:45.415Z,77.80
2023-01-09T12:32:57.073Z,77.37
2023-01-09T12:35:41.672Z,77.91
2023-01-09T12:38:26.893Z,77.42
2023-01-09T12:41:02.259Z,77.25
2023-01-09T12:43:37.628Z,77.27
2023-01-09T12:46:17.912Z,77.24
2023-01-09T12:49:07.307Z,77.40
2023-01-09T12:51:41.905Z,77.26
2023-01-09T12:54:26.416Z,76.63
2023-01-09T12:56:57.432Z,76.59
2023-01-09T12:59:32.089Z,76.17
2023-01-09T13:02:07.683Z,75.34
2023-01-09T13:04:40.899Z,75.25
2023-01-09T13:07:18.088Z,74.94
2023-01-09T13:09:56.599Z,75.25
2023-01-09T13:12:25.081Z,76.08
2023-01-09T13:15:05.511Z,75.49
2023-01-09T13:17:43.506Z,76.25
2023-01-09T13:20:44.960Z,76.17
2023-01-09T13:23:43.366Z,76.73
2023-01-09T13:26:35.134Z,76.74
2023-01-09T13:29:11.705Z,77.03
2023-01-09T13:32:10.224Z,77.15
2023-01-09T13:34:38.550Z,78.06
2023-01-09T13:37:05.565Z,78.14
2023-01-09T13:39:35.025Z,78.31
2023-01-09T13:42:23.434Z,78.36
2023-01-09T13:44:54.193Z,78.48
2023-01-09T13:47:27.795Z,78.24
2023-01-09T13:50:00.745Z,78.23
2023-01-09T13:52:33.116Z,77.52
2023-01-09T13:55:25.261Z,78.06
2023-01-09T13:58:03.873Z,78.02
2023-01-09T14:00:36.470Z,78.09
2023-01-09T14:03:15.694Z,78.33
2023-01-09T14:05:42.016Z,78.75
2023-01-09T14:08:17.646Z,78.53
2023-01-09T14:10:43.986Z,78.62
2023-01-09T14:13:23.450Z,78.25
2023-01-09T14:15:51.930Z,78.57
2023-01-09T14:18:32.810Z,78.94
2023-01-09T14:21:10.810Z,78.86
2023-01-09T14:23:59.548Z,79.61
2023-01-09T14:26:57.172Z,78.96
2023-01-09T14:29:36.207Z,78.57
2023-01-09T14:32:20.972Z,78.21
2023-01-09T14:35:12.388Z,77.47
2023-01-09T14:37:40.934Z,77.62
2023-01-09T14:40:15.479Z,77.73
2023-01-09T14:42:44.376Z,78.08
2023-01-09T14:45:19.283Z,77.93
2023-01-09T14:47:48.479Z,77.89
2023-01-09T14:50:36.781Z,77.41
2023-01-09T14:53:23.854Z,78.19
2023-01-09T14:55:55.334Z,78.15
2023-01-09T14:58:35.528Z,78.17
2023-01-09T15:01:11.250Z,78.22
2023-01-09T15:03:41.403Z,78.36
2023-01-09T15:06:17.315Z,78.59
2023-01-09T15:08:54.852Z,78.43
2023-01-09T15:11:21.401Z,78.80
2023-01-09T15:13:50.885Z,78.82
2023-01-09T15:16:23.489Z,78.51
2023-01-09T15:19:00.589Z,78.23
2023-01-09T15:21:32.821Z,79.01
2023-01-09T15:24:34.304Z,78.53
2023-01-09T15:27:11.792Z,78.83
2023-01-09T15:29:38.487Z,79.07
2023-01-09T15:32:09.849Z,78.84
2023-01-09T15:34:36.539Z,79.30
2023-01-09T15:37:03.518Z,79.69
2023-01-09T15:39:35.998Z,79.30
2023-01-09T15:42:22.080Z,79.61
2023-01-09T15:44:53.584Z,79.71
2023-01-09T15:47:23.958Z,79.43
2023-01-09T15:49:50.915Z,79.81
2023-01-09T15:52:18.249Z,79.73
2023-01-09T15:54:49.076Z,79.47
2023-01-09T15:57:24.457Z,78.58
2023-01-09T15:59:53.970Z,78.64
2023-01-09T16:02:40.453Z,78.70
2023-01-09T16:05:15.641Z,77.93
2023-01-09T16:07:49.195Z,78.03
2023-01-09T16:10:24.875Z,77.79
2023-01-09T16:12:52.725Z,78.25
2023-01-09T16:15:20.487Z,78.34
2023-01-09T16:18:15.340Z,78.19
2023-01-09T16:20:42.544Z,78.69
2023-01-09T16:23:24.073Z,77.64
2023-01-09T16:25:50.805Z,78.51
2023-01-09T16:28:28.173Z,77.82
2023-01-09T16:31:05.035Z,78.21
2023-01-09T16:33:32.330Z,78.75
2023-01-09T16:35:59.096Z,78.74
2023-01-09T16:38:26.209Z,78.60
2023-01-09T16:41:18.475Z,78.17
2023-01-09T16:43:45.387Z,78.57
2023-01-09T16:46:13.863Z,78.52
2023-01-09T16:48:42.235Z,79.00
2023-01-09T16:51:16.218Z,78.33
2023-01-09T16:53:43.479Z,78.59
2023-01-09T16:56:27.624Z,78.23
2023-01-09T16:58:54.809Z,78.72
2023-01-09T17:01:22.503Z,78.92
2023-01-09T17:03:49.971Z,79.03
2023-01-09T17:06:23.490Z,78.60
2023-01-09T17:08:51.420Z,78.59
2023-01-09T17:11:31.908Z,78.32
2023-01-09T17:13:59.572Z,79.13
2023-01-09T17:16:26.307Z,78.89
2023-01-09T17:18:52.840Z,79.17
2023-01-09T17:21:24.705Z,78.31
2023-01-09T17:24:10.347Z,78.46
2023-01-09T17:26:58.058Z,78.46
2023-01-09T17:29:24.781Z,78.66
2023-01-09T17:31:51.224Z,78.88
2023-01-09T17:34:17.698Z,78.81
2023-01-09T17:36:44.511Z,79.41
2023-01-09T17:39:15.956Z,78.72
2023-01-09T17:41:42.836Z,79.07
2023-01-09T17:44:12.505Z,78.81
2023-01-09T17:46:41.606Z,78.62
2023-01-09T17:49:15.110Z,78.33
2023-01-09T17:51:41.535Z,78.38
2023-01-09T17:54:08.180Z,78.11
2023-01-09T17:56:37.563Z,78.04
2023-01-09T17:59:04.965Z,78.08
2023-01-09T18:01:31.576Z,77.81
2023-01-09T18:03:58.230Z,77.26
2023-01-09T18:06:24.895Z,77.15
2023-01-09T18:08:51.289Z,76.99
2023-01-09T18:11:19.948Z,77.13
2023-01-09T18:13:48.220Z,77.11
2023-01-09T18:16:17.421Z,76.92
2023-01-09T18:18:45.093Z,77.03
2023-01-09T18:21:15.346Z,76.83
2023-01-09T18:23:41.848Z,77.45
2023-01-09T18:26:09.287Z,77.70
2023-01-09T18:28:37.016Z,78.13
2023-01-09T18:31:04.830Z,78.33
2023-01-09T18:33:32.023Z,78.53
2023-01-09T18:36:07.915Z,77.76
2023-01-09T18:38:34.957Z,77.94
2023-01-09T18:41:03.288Z,78.03
2023-01-09T18:43:30.164Z,77.93
2023-01-09T18:45:56.905Z,78.03
2023-01-09T18:48:23.937Z,78.25
2023-01-09T18:50:50.507Z,77.96
2023-01-09T18:53:17.028Z,78.32
2023-01-09T18:55:43.633Z,78.21
2023-01-09T18:58:24.004Z,78.31
2023-01-09T19:00:51.543Z,78.39
2023-01-09T19:03:18.045Z,78.45
2023-01-09T19:05:44.848Z,78.23
2023-01-09T19:08:11.438Z,78.04
2023-01-09T19:10:37.931Z,78.23
2023-01-09T19:13:04.551Z,78.45
2023-01-09T19:15:31.106Z,78.19
2023-01-09T19:17:57.748Z,78.68
2023-01-09T19:20:24.286Z,78.63
2023-01-09T19:22:50.801Z,78.57
2023-01-09T19:25:17.483Z,78.97
2023-01-09T19:27:43.982Z,78.66
2023-01-09T19:30:12.300Z,79.03
2023-01-09T19:32:39.815Z,79.11
2023-01-09T19:35:06.476Z,79.26
2023-01-09T19:37:35.042Z,79.53
2023-01-09T19:40:01.515Z,79.92
2023-01-09T19:42:28.097Z,79.84
2023-01-09T19:44:54.647Z,80.02
2023-01-09T19:47:21.159Z,79.80
2023-01-09T19:49:47.721Z,79.59
2023-01-09T19:52:14.774Z,79.58
2023-01-09T19:54:41.348Z,79.38
2023-01-09T19:57:07.915Z,79.17
2023-01-09T19:59:36.035Z,79.38
2023-01-09T20:02:03.307Z,79.18
2023-01-09T20:04:29.986Z,79.23
2023-01-09T20:06:56.555Z,79.45
2023-01-09T20:09:25.754Z,79.38
2023-01-09T20:11:52.307Z,79.58
2023-01-09T20:14:19.346Z,79.40
2023-01-09T20:16:50.060Z,79.41
2023-01-09T20:19:16.982Z,79.30
2023-01-09T20:21:43.830Z,79.54
2023-01-09T20:24:14.408Z,79.10
2023-01-09T20:26:41.743Z,79.73
2023-01-09T20:29:10.921Z,79.42
2023-01-09T20:31:37.551Z,79.27
2023-01-09T20:34:04.527Z,78.98
2023-01-09T20:36:34.041Z,79.19
2023-01-09T20:39:04.375Z,78.83
2023-01-09T20:41:31.396Z,79.11
2023-01-09T20:44:07.308Z,78.93
2023-01-09T20:46:37.105Z,79.06
2023-01-09T20:49:06.499Z,79.26
2023-01-09T20:51:35.269Z,79.43
2023-01-09T20:54:02.207Z,79.14
2023-01-09T20:56:30.507Z,79.32
2023-01-09T20:58:58.909Z,79.08
2023-01-09T21:01:26.160Z,79.16
2023-01-09T21:03:54.089Z,78.79
2023-01-09T21:06:22.560Z,78.92
2023-01-09T21:08:50.838Z,79.15
2023-01-09T21:11:17.959Z,79.28
2023-01-09T21:13:44.524Z,79.42
2023-01-09T21:16:24.453Z,78.80
2023-01-09T21:18:52.450Z,78.93
2023-01-09T21:21:22.459Z,78.66
2023-01-09T21:23:51.975Z,78.85
2023-01-09T21:26:22.527Z,78.85
2023-01-09T21:28:51.456Z,78.78
2023-01-09T21:31:20.360Z,78.89
2023-01-09T21:33:47.807Z,79.02
2023-01-09T21:36:14.536Z,79.01
2023-01-09T21:38:41.109Z,79.06
2023-01-09T21:41:26.553Z,79.17
2023-01-09T21:44:11.442Z,79.09
2023-01-09T21:46:53.126Z,79.15
2023-01-09T21:49:20.914Z,78.68
2023-01-09T21:51:47.568Z,78.88
2023-01-09T21:54:14.558Z,78.76
2023-01-09T21:56:41.099Z,78.94
2023-01-09T21:59:07.819Z,78.54
2023-01-09T22:01:34.402Z,78.48
2023-01-09T22:04:00.933Z,78.19
2023-01-09T22:06:28.585Z,78.47
2023-01-09T22:08:56.093Z,78.87
2023-01-09T22:11:23.101Z,78.81
2023-01-09T22:13:50.415Z,78.85
2023-01-09T22:16:17.583Z,79.05
2023-01-09T22:18:44.312Z,79.13
2023-01-09T22:21:10.814Z,78.59
2023-01-09T22:23:37.373Z,78.64
2023-01-09T22:26:09.242Z,78.23
2023-01-09T22:28:35.775Z,78.75
2023-01-09T22:31:02.485Z,78.70
2023-01-09T22:33:29.121Z,78.64
2023-01-09T22:35:55.718Z,78.65
2023-01-09T22:38:22.461Z,78.63
2023-01-09T22:40:50.119Z,78.46
2023-01-09T22:43:17.341Z,78.62
2023-01-09T22:45:43.996Z,78.74
2023-01-09T22:48:10.756Z,78.57
2023-01-09T22:50:37.412Z,78.49
2023-01-09T22:53:04.122Z,78.38
2023-01-09T22:55:30.688Z,78.42
2023-01-09T22:57:57.315Z,78.47
2023-01-09T23:00:23.937Z,78.04
2023-01-09T23:02:50.621Z,77.91
2023-01-09T23:05:19.650Z,78.06
2023-01-09T23:07:46.292Z,77.81
2023-01-09T23:10:12.944Z,77.65
2023-01-09T23:12:39.460Z,77.61
2023-01-09T23:15:06.795Z,77.19
2023-01-09T23:17:33.327Z,77.15
2023-01-09T23:19:59.871Z,77.30
2023-01-09T23:22:26.337Z,77.19
2023-01-09T23:24:52.871Z,77.48
2023-01-09T23:27:19.335Z,77.36
2023-01-09T23:29:46.427Z,77.48
2023-01-09T23:32:14.163Z,77.49
2023-01-09T23:34:41.653Z,77.27
2023-01-09T23:37:09.679Z,77.65
2023-01-09T23:39:36.363Z,77.48
2023-01-09T23:42:21.615Z,77.50
2023-01-09T23:44:48.105Z,77.82
2023-01-09T23:47:14.873Z,77.81
2023-01-09T23:49:41.369Z,78.06
2023-01-09T23:52:08.890Z,77.99
2023-01-09T23:54:36.175Z,78.13
2023-01-09T23:57:02.921Z,77.92
2023-01-09T23:59:29.463Z,78.25
